sensor_id;sensor_type;location;lat;lon;timestamp;pressure;altitude;pressure_sealevel;temperature;humidity
7376;BME280;3728;42.266;24.944;2023-03-04T00:00:31;99707.91;;;6.62;100.00
7376;BME280;3728;42.266;24.944;2023-03-04T00:02:58;99709.22;;;6.55;100.00
7376;BME280;3728;42.266;24.944;2023-03-04T00:05:27;99711.06;;;6.54;100.00
7376;BME280;3728;42.266;24.944;2023-03-04T00:07:56;99709.31;;;6.45;100.00
7376;BME280;3728;42.266;24.944;2023-03-04T00:10:24;99713.69;;;6.49;100.00
7376;BME280;3728;42.266;24.944;2023-03-04T00:12:52;99717.13;;;6.35;100.00
7376;BME280;3728;42.266;24.944;2023-03-04T00:15:19;99713.06;;;6.13;100.00
7376;BME280;3728;42.266;24.944;2023-03-04T00:17:49;99705.78;;;6.05;100.00
7376;BME280;3728;42.266;24.944;2023-03-04T00:20:17;99705.25;;;6.18;100.00
7376;BME280;3728;42.266;24.944;2023-03-04T00:22:44;99704.16;;;6.25;100.00
7376;BME280;3728;42.266;24.944;2023-03-04T00:25:13;99702.06;;;6.27;100.00
7376;BME280;3728;42.266;24.944;2023-03-04T00:27:42;99699.75;;;6.25;100.00
7376;BME280;3728;42.266;24.944;2023-03-04T00:30:10;99702.34;;;6.25;100.00
7376;BME280;3728;42.266;24.944;2023-03-04T00:32:38;99692.22;;;6.29;100.00
7376;BME280;3728;42.266;24.944;2023-03-04T00:35:06;99699.56;;;6.65;100.00
7376;BME280;3728;42.266;24.944;2023-03-04T00:37:33;99709.38;;;6.25;100.00
7376;BME280;3728;42.266;24.944;2023-03-04T00:40:01;99712.03;;;6.14;100.00
7376;BME280;3728;42.266;24.944;2023-03-04T00:42:30;99710.25;;;5.75;100.00
7376;BME280;3728;42.266;24.944;2023-03-04T00:44:58;99702.47;;;5.85;100.00
7376;BME280;3728;42.266;24.944;2023-03-04T00:47:25;99703.81;;;5.57;100.00
7376;BME280;3728;42.266;24.944;2023-03-04T00:49:53;99697.06;;;5.36;100.00
7376;BME280;3728;42.266;24.944;2023-03-04T00:52:20;99704.88;;;5.41;100.00
7376;BME280;3728;42.266;24.944;2023-03-04T00:54:48;99691.88;;;5.41;100.00
7376;BME280;3728;42.266;24.944;2023-03-04T00:57:15;99691.84;;;5.61;100.00
7376;BME280;3728;42.266;24.944;2023-03-04T00:59:43;99692.41;;;5.38;100.00
7376;BME280;3728;42.266;24.944;2023-03-04T01:02:11;99695.00;;;5.58;100.00
7376;BME280;3728;42.266;24.944;2023-03-04T01:04:39;99699.69;;;5.46;100.00
7376;BME280;3728;42.266;24.944;2023-03-04T01:07:07;99701.75;;;5.44;100.00
7376;BME280;3728;42.266;24.944;2023-03-04T01:09:35;99702.00;;;5.37;100.00
7376;BME280;3728;42.266;24.944;2023-03-04T01:12:03;99702.00;;;5.47;100.00
7376;BME280;3728;42.266;24.944;2023-03-04T01:14:30;99703.31;;;5.30;100.00
7376;BME280;3728;42.266;24.944;2023-03-04T01:16:58;99699.16;;;5.19;100.00
7376;BME280;3728;42.266;24.944;2023-03-04T01:19:25;99693.72;;;5.20;100.00
7376;BME280;3728;42.266;24.944;2023-03-04T01:21:53;99691.63;;;5.22;100.00
7376;BME280;3728;42.266;24.944;2023-03-04T01:24:20;99701.25;;;5.32;100.00
7376;BME280;3728;42.266;24.944;2023-03-04T01:26:48;99693.97;;;5.44;100.00
7376;BME280;3728;42.266;24.944;2023-03-04T01:29:15;99695.53;;;5.25;100.00
7376;BME280;3728;42.266;24.944;2023-03-04T01:31:43;99685.66;;;5.27;100.00
7376;BME280;3728;42.266;24.944;2023-03-04T01:34:11;99682.78;;;5.43;100.00
7376;BME280;3728;42.266;24.944;2023-03-04T01:36:38;99683.56;;;5.24;100.00
7376;BME280;3728;42.266;24.944;2023-03-04T01:39:06;99680.47;;;5.22;100.00
7376;BME280;3728;42.266;24.944;2023-03-04T01:41:33;99683.06;;;5.32;100.00
7376;BME280;3728;42.266;24.944;2023-03-04T01:44:01;99686.41;;;5.02;100.00
7376;BME280;3728;42.266;24.944;2023-03-04T01:46:29;99678.91;;;4.96;100.00
7376;BME280;3728;42.266;24.944;2023-03-04T01:48:58;99673.97;;;5.04;100.00
7376;BME280;3728;42.266;24.944;2023-03-04T01:51:26;99671.13;;;5.11;100.00
7376;BME280;3728;42.266;24.944;2023-03-04T01:53:54;99669.03;;;5.08;100.00
7376;BME280;3728;42.266;24.944;2023-03-04T01:56:45;99669.81;;;5.18;100.00
7376;BME280;3728;42.266;24.944;2023-03-04T01:59:20;99669.28;;;5.31;100.00
7376;BME280;3728;42.266;24.944;2023-03-04T02:01:52;99673.44;;;5.47;100.00
7376;BME280;3728;42.266;24.944;2023-03-04T02:04:28;99674.22;;;5.48;100.00
7376;BME280;3728;42.266;24.944;2023-03-04T02:06:58;99679.78;;;6.10;100.00
7376;BME280;3728;42.266;24.944;2023-03-04T02:09:27;99676.88;;;6.22;100.00
7376;BME280;3728;42.266;24.944;2023-03-04T02:11:56;99670.97;;;6.06;100.00
7376;BME280;3728;42.266;24.944;2023-03-04T02:14:24;99682.47;;;5.90;100.00
7376;BME280;3728;42.266;24.944;2023-03-04T02:16:53;99693.41;;;5.57;100.00
7376;BME280;3728;42.266;24.944;2023-03-04T02:22:05;99680.47;;;5.32;100.00
7376;BME280;3728;42.266;24.944;2023-03-04T02:24:43;99673.72;;;5.41;100.00
7376;BME280;3728;42.266;24.944;2023-03-04T02:27:15;99681.50;;;5.36;100.00
7376;BME280;3728;42.266;24.944;2023-03-04T02:29:45;99678.66;;;5.27;100.00
7376;BME280;3728;42.266;24.944;2023-03-04T02:32:13;99687.19;;;5.48;100.00
7376;BME280;3728;42.266;24.944;2023-03-04T02:34:49;99690.31;;;5.45;100.00
7376;BME280;3728;42.266;24.944;2023-03-04T02:37:19;99680.19;;;5.38;100.00
7376;BME280;3728;42.266;24.944;2023-03-04T02:39:51;99673.19;;;5.34;100.00
7376;BME280;3728;42.266;24.944;2023-03-04T02:42:18;99675.28;;;5.27;100.00
7376;BME280;3728;42.266;24.944;2023-03-04T02:44:46;99668.28;;;5.27;100.00
7376;BME280;3728;42.266;24.944;2023-03-04T02:47:18;99660.22;;;5.09;100.00
7376;BME280;3728;42.266;24.944;2023-03-04T02:49:47;99661.25;;;5.03;100.00
7376;BME280;3728;42.266;24.944;2023-03-04T02:52:20;99657.38;;;5.10;100.00
7376;BME280;3728;42.266;24.944;2023-03-04T02:54:51;99657.38;;;5.15;100.00
7376;BME280;3728;42.266;24.944;2023-03-04T02:57:19;99658.91;;;5.11;100.00
7376;BME280;3728;42.266;24.944;2023-03-04T02:59:51;99656.06;;;5.18;100.00
7376;BME280;3728;42.266;24.944;2023-03-04T03:02:22;99652.44;;;4.99;100.00
7376;BME280;3728;42.266;24.944;2023-03-04T03:04:49;99651.38;;;4.95;100.00
7376;BME280;3728;42.266;24.944;2023-03-04T03:07:19;99660.22;;;4.99;100.00
7376;BME280;3728;42.266;24.944;2023-03-04T03:09:50;99658.16;;;5.06;100.00
7376;BME280;3728;42.266;24.944;2023-03-04T03:12:17;99661.25;;;4.93;100.00
7376;BME280;3728;42.266;24.944;2023-03-04T03:14:45;99664.63;;;5.03;100.00
7376;BME280;3728;42.266;24.944;2023-03-04T03:17:16;99677.09;;;4.96;100.00
7376;BME280;3728;42.266;24.944;2023-03-04T03:19:45;99671.63;;;4.98;100.00
7376;BME280;3728;42.266;24.944;2023-03-04T03:22:14;99678.09;;;4.90;100.00
7376;BME280;3728;42.266;24.944;2023-03-04T03:24:42;99679.94;;;4.84;100.00
7376;BME280;3728;42.266;24.944;2023-03-04T03:27:09;99681.78;;;4.99;100.00
7376;BME280;3728;42.266;24.944;2023-03-04T03:29:37;99685.63;;;5.02;100.00
7376;BME280;3728;42.266;24.944;2023-03-04T03:32:06;99685.63;;;4.81;100.00
7376;BME280;3728;42.266;24.944;2023-03-04T03:34:34;99689.00;;;4.72;100.00
7376;BME280;3728;42.266;24.944;2023-03-04T03:37:02;99688.75;;;4.89;100.00
7376;BME280;3728;42.266;24.944;2023-03-04T03:39:29;99687.44;;;4.86;100.00
7376;BME280;3728;42.266;24.944;2023-03-04T03:41:57;99684.88;;;4.91;100.00
7376;BME280;3728;42.266;24.944;2023-03-04T03:44:24;99686.66;;;4.85;100.00
7376;BME280;3728;42.266;24.944;2023-03-04T03:46:52;99688.72;;;4.78;100.00
7376;BME280;3728;42.266;24.944;2023-03-04T03:49:19;99684.84;;;4.66;100.00
7376;BME280;3728;42.266;24.944;2023-03-04T03:51:47;99687.44;;;4.66;100.00
7376;BME280;3728;42.266;24.944;2023-03-04T03:54:14;99673.94;;;4.64;100.00
7376;BME280;3728;42.266;24.944;2023-03-04T03:56:42;99672.66;;;4.76;100.00
7376;BME280;3728;42.266;24.944;2023-03-04T03:59:09;99670.84;;;4.87;100.00
7376;BME280;3728;42.266;24.944;2023-03-04T04:01:37;99672.41;;;4.93;100.00
7376;BME280;3728;42.266;24.944;2023-03-04T04:04:04;99672.16;;;5.00;100.00
7376;BME280;3728;42.266;24.944;2023-03-04T04:06:32;99671.38;;;4.99;100.00
7376;BME280;3728;42.266;24.944;2023-03-04T04:08:59;99667.75;;;5.00;100.00
7376;BME280;3728;42.266;24.944;2023-03-04T04:11:27;99673.72;;;5.01;100.00
7376;BME280;3728;42.266;24.944;2023-03-04T04:13:54;99675.78;;;4.83;100.00
7376;BME280;3728;42.266;24.944;2023-03-04T04:16:22;99670.84;;;4.77;100.00
7376;BME280;3728;42.266;24.944;2023-03-04T04:18:49;99675.00;;;4.73;100.00
7376;BME280;3728;42.266;24.944;2023-03-04T04:21:17;99672.66;;;4.87;100.00
7376;BME280;3728;42.266;24.944;2023-03-04T04:23:44;99678.88;;;4.80;100.00
7376;BME280;3728;42.266;24.944;2023-03-04T04:26:12;99678.34;;;4.73;100.00
7376;BME280;3728;42.266;24.944;2023-03-04T04:28:42;99677.28;;;4.64;100.00
7376;BME280;3728;42.266;24.944;2023-03-04T04:31:09;99678.09;;;4.75;100.00
7376;BME280;3728;42.266;24.944;2023-03-04T04:33:37;99680.94;;;4.78;100.00
7376;BME280;3728;42.266;24.944;2023-03-04T04:36:05;99678.13;;;4.80;100.00
7376;BME280;3728;42.266;24.944;2023-03-04T04:38:32;99679.66;;;4.71;100.00
7376;BME280;3728;42.266;24.944;2023-03-04T04:41:00;99690.06;;;4.91;100.00
7376;BME280;3728;42.266;24.944;2023-03-04T04:43:27;99693.41;;;4.81;100.00
7376;BME280;3728;42.266;24.944;2023-03-04T04:45:59;99690.03;;;4.71;100.00
7376;BME280;3728;42.266;24.944;2023-03-04T04:48:26;99690.56;;;4.83;100.00
7376;BME280;3728;42.266;24.944;2023-03-04T04:50:55;99697.03;;;4.70;100.00
7376;BME280;3728;42.266;24.944;2023-03-04T04:53:22;99701.38;;;4.55;100.00
7376;BME280;3728;42.266;24.944;2023-03-04T04:55:50;99705.81;;;4.54;100.00
7376;BME280;3728;42.266;24.944;2023-03-04T04:58:17;99708.94;;;4.56;100.00
7376;BME280;3728;42.266;24.944;2023-03-04T05:00:45;99712.78;;;4.49;100.00
7376;BME280;3728;42.266;24.944;2023-03-04T05:03:12;99710.47;;;4.47;100.00
7376;BME280;3728;42.266;24.944;2023-03-04T05:05:44;99706.31;;;4.51;100.00
7376;BME280;3728;42.266;24.944;2023-03-04T05:08:11;99702.66;;;4.52;100.00
7376;BME280;3728;42.266;24.944;2023-03-04T05:10:39;99711.00;;;4.59;100.00
7376;BME280;3728;42.266;24.944;2023-03-04T05:13:06;99708.44;;;4.74;100.00
7376;BME280;3728;42.266;24.944;2023-03-04T05:15:34;99703.22;;;4.59;100.00
7376;BME280;3728;42.266;24.944;2023-03-04T05:18:04;99695.94;;;4.46;100.00
7376;BME280;3728;42.266;24.944;2023-03-04T05:20:32;99699.56;;;4.50;100.00
7376;BME280;3728;42.266;24.944;2023-03-04T05:22:59;99706.06;;;4.53;100.00
7376;BME280;3728;42.266;24.944;2023-03-04T05:25:27;99704.25;;;4.53;100.00
7376;BME280;3728;42.266;24.944;2023-03-04T05:27:55;99704.75;;;4.55;100.00
7376;BME280;3728;42.266;24.944;2023-03-04T05:30:22;99711.53;;;4.61;100.00
7376;BME280;3728;42.266;24.944;2023-03-04T05:32:50;99704.81;;;4.70;100.00
7376;BME280;3728;42.266;24.944;2023-03-04T05:35:17;99709.47;;;4.63;100.00
7376;BME280;3728;42.266;24.944;2023-03-04T05:37:46;99707.66;;;4.64;100.00
7376;BME280;3728;42.266;24.944;2023-03-04T05:40:14;99706.63;;;4.75;100.00
7376;BME280;3728;42.266;24.944;2023-03-04T05:42:41;99714.44;;;4.95;100.00
7376;BME280;3728;42.266;24.944;2023-03-04T05:45:09;99709.00;;;5.07;100.00
7376;BME280;3728;42.266;24.944;2023-03-04T05:47:37;99708.00;;;5.18;100.00
7376;BME280;3728;42.266;24.944;2023-03-04T05:50:05;99703.31;;;5.20;100.00
7376;BME280;3728;42.266;24.944;2023-03-04T05:52:33;99713.44;;;5.26;100.00
7376;BME280;3728;42.266;24.944;2023-03-04T05:55:00;99714.22;;;5.27;100.00
7376;BME280;3728;42.266;24.944;2023-03-04T05:57:28;99720.72;;;5.24;100.00
7376;BME280;3728;42.266;24.944;2023-03-04T05:59:57;99721.75;;;5.28;100.00
7376;BME280;3728;42.266;24.944;2023-03-04T06:02:25;99717.56;;;5.32;100.00
7376;BME280;3728;42.266;24.944;2023-03-04T06:04:53;99715.50;;;5.44;100.00
7376;BME280;3728;42.266;24.944;2023-03-04T06:07:20;99709.78;;;5.47;100.00
7376;BME280;3728;42.266;24.944;2023-03-04T06:09:48;99719.63;;;5.71;100.00
7376;BME280;3728;42.266;24.944;2023-03-04T06:12:15;99732.91;;;5.69;100.00
7376;BME280;3728;42.266;24.944;2023-03-04T06:14:43;99727.19;;;5.67;100.00
7376;BME280;3728;42.266;24.944;2023-03-04T06:17:10;99728.72;;;5.73;100.00
7376;BME280;3728;42.266;24.944;2023-03-04T06:19:38;99720.13;;;5.83;100.00
7376;BME280;3728;42.266;24.944;2023-03-04T06:22:08;99720.88;;;5.98;100.00
7376;BME280;3728;42.266;24.944;2023-03-04T06:24:36;99730.25;;;5.99;100.00
7376;BME280;3728;42.266;24.944;2023-03-04T06:27:04;99733.84;;;6.13;100.00
7376;BME280;3728;42.266;24.944;2023-03-04T06:29:32;99746.84;;;6.24;100.00
7376;BME280;3728;42.266;24.944;2023-03-04T06:32:00;99740.88;;;6.18;100.00
7376;BME280;3728;42.266;24.944;2023-03-04T06:34:28;99735.44;;;6.14;100.00
7376;BME280;3728;42.266;24.944;2023-03-04T06:36:55;99746.28;;;6.32;100.00
7376;BME280;3728;42.266;24.944;2023-03-04T06:39:23;99746.53;;;6.40;100.00
7376;BME280;3728;42.266;24.944;2023-03-04T06:41:50;99735.81;;;6.47;100.00
7376;BME280;3728;42.266;24.944;2023-03-04T06:44:19;99735.56;;;6.43;100.00
7376;BME280;3728;42.266;24.944;2023-03-04T06:46:47;99738.13;;;6.48;100.00
7376;BME280;3728;42.266;24.944;2023-03-04T06:49:14;99739.91;;;6.63;100.00
7376;BME280;3728;42.266;24.944;2023-03-04T06:51:42;99755.50;;;6.68;100.00
7376;BME280;3728;42.266;24.944;2023-03-04T06:54:10;99765.03;;;6.87;100.00
7376;BME280;3728;42.266;24.944;2023-03-04T06:56:37;99763.81;;;6.65;100.00
7376;BME280;3728;42.266;24.944;2023-03-04T06:59:05;99766.34;;;6.85;100.00
7376;BME280;3728;42.266;24.944;2023-03-04T07:01:33;99763.09;;;7.08;100.00
7376;BME280;3728;42.266;24.944;2023-03-04T07:04:02;99767.63;;;7.26;100.00
7376;BME280;3728;42.266;24.944;2023-03-04T07:06:30;99774.31;;;7.04;100.00
7376;BME280;3728;42.266;24.944;2023-03-04T07:08:58;99772.06;;;6.87;100.00
7376;BME280;3728;42.266;24.944;2023-03-04T07:11:26;99763.72;;;6.90;100.00
7376;BME280;3728;42.266;24.944;2023-03-04T07:13:54;99760.38;;;6.79;100.00
7376;BME280;3728;42.266;24.944;2023-03-04T07:16:22;99765.66;;;6.64;100.00
7376;BME280;3728;42.266;24.944;2023-03-04T07:18:53;99762.00;;;6.65;100.00
7376;BME280;3728;42.266;24.944;2023-03-04T07:21:21;99763.47;;;6.86;100.00
7376;BME280;3728;42.266;24.944;2023-03-04T07:23:49;99760.97;;;7.10;100.00
7376;BME280;3728;42.266;24.944;2023-03-04T07:26:16;99745.56;;;7.14;100.00
7376;BME280;3728;42.266;24.944;2023-03-04T07:28:44;99748.75;;;7.11;100.00
7376;BME280;3728;42.266;24.944;2023-03-04T07:33:49;99753.47;;;7.71;100.00
7376;BME280;3728;42.266;24.944;2023-03-04T07:36:17;99754.31;;;7.90;100.00
7376;BME280;3728;42.266;24.944;2023-03-04T07:38:48;99755.31;;;7.66;100.00
7376;BME280;3728;42.266;24.944;2023-03-04T07:41:26;99759.13;;;7.49;100.00
7376;BME280;3728;42.266;24.944;2023-03-04T07:43:57;99747.84;;;7.88;100.00
7376;BME280;3728;42.266;24.944;2023-03-04T07:46:25;99748.53;;;7.70;100.00
7376;BME280;3728;42.266;24.944;2023-03-04T07:48:54;99752.03;;;7.55;100.00
7376;BME280;3728;42.266;24.944;2023-03-04T07:51:24;99759.38;;;7.82;100.00
7376;BME280;3728;42.266;24.944;2023-03-04T07:53:55;99753.75;;;7.98;100.00
7376;BME280;3728;42.266;24.944;2023-03-04T07:56:28;99753.84;;;8.12;100.00
7376;BME280;3728;42.266;24.944;2023-03-04T07:58:57;99755.63;;;8.16;100.00
7376;BME280;3728;42.266;24.944;2023-03-04T08:01:32;99755.06;;;8.19;100.00
7376;BME280;3728;42.266;24.944;2023-03-04T08:04:04;99750.22;;;8.08;100.00
7376;BME280;3728;42.266;24.944;2023-03-04T08:06:33;99746.84;;;8.07;100.00
7376;BME280;3728;42.266;24.944;2023-03-04T08:09:15;99745.75;;;8.13;100.00
7376;BME280;3728;42.266;24.944;2023-03-04T08:11:43;99752.09;;;8.31;100.00
7376;BME280;3728;42.266;24.944;2023-03-04T08:14:11;99744.28;;;8.31;100.00
7376;BME280;3728;42.266;24.944;2023-03-04T08:16:39;99746.69;;;8.46;100.00
7376;BME280;3728;42.266;24.944;2023-03-04T08:19:07;99743.59;;;8.63;100.00
7376;BME280;3728;42.266;24.944;2023-03-04T08:21:36;99746.16;;;8.86;100.00
7376;BME280;3728;42.266;24.944;2023-03-04T08:24:04;99745.13;;;8.87;100.00
7376;BME280;3728;42.266;24.944;2023-03-04T08:26:44;99740.88;;;8.91;100.00
7376;BME280;3728;42.266;24.944;2023-03-04T08:29:16;99740.44;;;8.84;100.00
7376;BME280;3728;42.266;24.944;2023-03-04T08:31:49;99739.91;;;8.87;100.00
7376;BME280;3728;42.266;24.944;2023-03-04T08:34:21;99739.25;;;8.95;100.00
7376;BME280;3728;42.266;24.944;2023-03-04T08:36:49;99737.22;;;8.92;100.00
7376;BME280;3728;42.266;24.944;2023-03-04T08:39:17;99740.50;;;8.98;100.00
7376;BME280;3728;42.266;24.944;2023-03-04T08:41:47;99738.47;;;9.14;100.00
7376;BME280;3728;42.266;24.944;2023-03-04T08:44:15;99737.84;;;9.03;100.00
7376;BME280;3728;42.266;24.944;2023-03-04T08:46:43;99736.78;;;9.04;100.00
7376;BME280;3728;42.266;24.944;2023-03-04T08:49:12;99743.91;;;9.17;100.00
7376;BME280;3728;42.266;24.944;2023-03-04T08:51:41;99744.59;;;9.55;97.09
7376;BME280;3728;42.266;24.944;2023-03-04T08:54:10;99749.03;;;10.41;92.95
7376;BME280;3728;42.266;24.944;2023-03-04T08:56:39;99749.66;;;10.38;89.70
7376;BME280;3728;42.266;24.944;2023-03-04T08:59:07;99755.38;;;10.26;90.54
7376;BME280;3728;42.266;24.944;2023-03-04T09:01:37;99754.91;;;9.65;92.79
7376;BME280;3728;42.266;24.944;2023-03-04T09:04:06;99753.34;;;9.32;95.27
7376;BME280;3728;42.266;24.944;2023-03-04T09:06:34;99758.19;;;9.38;96.67
7376;BME280;3728;42.266;24.944;2023-03-04T09:09:03;99751.56;;;9.46;98.06
7376;BME280;3728;42.266;24.944;2023-03-04T09:11:30;99745.50;;;9.32;99.18
7376;BME280;3728;42.266;24.944;2023-03-04T09:13:58;99746.16;;;9.56;98.60
7376;BME280;3728;42.266;24.944;2023-03-04T09:16:26;99741.81;;;9.33;98.36
7376;BME280;3728;42.266;24.944;2023-03-04T09:18:54;99743.28;;;9.39;98.00
7376;BME280;3728;42.266;24.944;2023-03-04T09:21:23;99742.25;;;9.21;100.00
7376;BME280;3728;42.266;24.944;2023-03-04T09:23:50;99738.72;;;9.31;98.78
7376;BME280;3728;42.266;24.944;2023-03-04T09:26:24;99738.47;;;9.14;100.00
7376;BME280;3728;42.266;24.944;2023-03-04T09:28:55;99733.66;;;9.21;100.00
7376;BME280;3728;42.266;24.944;2023-03-04T09:31:25;99730.91;;;9.12;100.00
7376;BME280;3728;42.266;24.944;2023-03-04T09:33:57;99732.06;;;9.06;100.00
7376;BME280;3728;42.266;24.944;2023-03-04T09:36:25;99731.34;;;9.01;100.00
7376;BME280;3728;42.266;24.944;2023-03-04T09:38:53;99720.25;;;9.09;100.00
7376;BME280;3728;42.266;24.944;2023-03-04T09:41:26;99720.09;;;9.19;100.00
7376;BME280;3728;42.266;24.944;2023-03-04T09:44:19;99719.56;;;9.35;100.00
7376;BME280;3728;42.266;24.944;2023-03-04T09:46:58;99705.19;;;9.51;100.00
7376;BME280;3728;42.266;24.944;2023-03-04T09:49:29;99709.66;;;9.51;100.00
7376;BME280;3728;42.266;24.944;2023-03-04T09:52:02;99699.59;;;9.72;100.00
7376;BME280;3728;42.266;24.944;2023-03-04T10:01:04;99699.63;;;10.26;98.85
7376;BME280;3728;42.266;24.944;2023-03-04T10:04:02;99690.13;;;10.30;96.13
7376;BME280;3728;42.266;24.944;2023-03-04T10:06:38;99688.66;;;10.38;94.42
7376;BME280;3728;42.266;24.944;2023-03-04T10:09:16;99686.72;;;10.43;94.38
7376;BME280;3728;42.266;24.944;2023-03-04T10:12:14;99681.56;;;10.52;94.41
7376;BME280;3728;42.266;24.944;2023-03-04T10:14:59;99685.28;;;10.73;94.48
7376;BME280;3728;42.266;24.944;2023-03-04T10:17:49;99683.84;;;10.89;92.84
7376;BME280;3728;42.266;24.944;2023-03-04T10:23:09;99687.25;;;11.34;88.39
7376;BME280;3728;42.266;24.944;2023-03-04T10:25:44;99681.06;;;11.30;84.63
7376;BME280;3728;42.266;24.944;2023-03-04T10:28:17;99671.53;;;11.42;82.48
7376;BME280;3728;42.266;24.944;2023-03-04T10:33:40;99679.38;;;11.64;83.54
7376;BME280;3728;42.266;24.944;2023-03-04T10:39:01;99662.38;;;11.93;76.69
7376;BME280;3728;42.266;24.944;2023-03-04T10:41:41;99659.88;;;11.88;76.24
7376;BME280;3728;42.266;24.944;2023-03-04T10:44:17;99658.63;;;11.77;78.04
7376;BME280;3728;42.266;24.944;2023-03-04T10:46:48;99647.00;;;11.69;79.67
7376;BME280;3728;42.266;24.944;2023-03-04T10:49:20;99650.00;;;11.85;80.21
7376;BME280;3728;42.266;24.944;2023-03-04T10:52:01;99658.75;;;11.72;81.79
7376;BME280;3728;42.266;24.944;2023-03-04T10:54:46;99645.50;;;11.77;80.92
7376;BME280;3728;42.266;24.944;2023-03-04T10:57:22;99638.44;;;11.86;83.72
7376;BME280;3728;42.266;24.944;2023-03-04T11:00:27;99635.59;;;11.74;82.30
7376;BME280;3728;42.266;24.944;2023-03-04T11:03:23;99625.56;;;11.76;81.70
7376;BME280;3728;42.266;24.944;2023-03-04T11:08:54;99618.63;;;11.40;84.16
7376;BME280;3728;42.266;24.944;2023-03-04T11:11:27;99613.91;;;11.99;80.78
7376;BME280;3728;42.266;24.944;2023-03-04T11:14:05;99610.22;;;12.00;79.75
7376;BME280;3728;42.266;24.944;2023-03-04T11:16:52;99595.25;;;12.17;78.08
7376;BME280;3728;42.266;24.944;2023-03-04T11:19:37;99594.31;;;12.05;80.98
7376;BME280;3728;42.266;24.944;2023-03-04T11:22:09;99598.66;;;11.61;81.59
7376;BME280;3728;42.266;24.944;2023-03-04T11:24:42;99589.38;;;11.55;83.39
7376;BME280;3728;42.266;24.944;2023-03-04T11:30:25;99575.63;;;12.06;82.39
7376;BME280;3728;42.266;24.944;2023-03-04T11:33:04;99578.13;;;12.28;82.17
7376;BME280;3728;42.266;24.944;2023-03-04T11:35:44;99576.56;;;12.19;79.92
7376;BME280;3728;42.266;24.944;2023-03-04T11:38:23;99566.38;;;12.00;82.38
7376;BME280;3728;42.266;24.944;2023-03-04T11:41:03;99569.31;;;12.16;81.28
7376;BME280;3728;42.266;24.944;2023-03-04T11:43:37;99561.88;;;12.35;78.31
7376;BME280;3728;42.266;24.944;2023-03-04T11:46:41;99566.03;;;12.53;77.46
7376;BME280;3728;42.266;24.944;2023-03-04T11:52:26;99558.63;;;12.64;77.11
7376;BME280;3728;42.266;24.944;2023-03-04T11:55:44;99557.25;;;12.41;77.45
7376;BME280;3728;42.266;24.944;2023-03-04T12:11:04;99545.22;;;12.48;76.27
7376;BME280;3728;42.266;24.944;2023-03-04T12:20:32;99536.69;;;12.51;78.31
7376;BME280;3728;42.266;24.944;2023-03-04T12:29:41;99520.81;;;12.94;76.48
7376;BME280;3728;42.266;24.944;2023-03-04T12:38:49;99505.31;;;12.63;80.31
7376;BME280;3728;42.266;24.944;2023-03-04T12:53:29;99502.72;;;13.39;73.75
7376;BME280;3728;42.266;24.944;2023-03-04T12:56:16;99500.97;;;13.05;75.53
7376;BME280;3728;42.266;24.944;2023-03-04T12:58:52;99499.28;;;13.00;77.01
7376;BME280;3728;42.266;24.944;2023-03-04T13:08:47;99481.31;;;13.20;74.87
7376;BME280;3728;42.266;24.944;2023-03-04T13:25:41;99463.06;;;13.64;74.44
7376;BME280;3728;42.266;24.944;2023-03-04T13:28:34;99454.28;;;13.60;74.67
7376;BME280;3728;42.266;24.944;2023-03-04T13:36:25;99452.81;;;13.51;75.52
7376;BME280;3728;42.266;24.944;2023-03-04T13:41:52;99440.38;;;14.13;73.93
7376;BME280;3728;42.266;24.944;2023-03-04T13:47:19;99438.13;;;14.81;65.43
7376;BME280;3728;42.266;24.944;2023-03-04T13:50:22;99431.94;;;15.13;60.21
7376;BME280;3728;42.266;24.944;2023-03-04T13:52:51;99434.16;;;14.75;64.06
7376;BME280;3728;42.266;24.944;2023-03-04T13:55:37;99429.38;;;14.44;66.07
7376;BME280;3728;42.266;24.944;2023-03-04T13:58:16;99426.88;;;14.48;66.89
7376;BME280;3728;42.266;24.944;2023-03-04T14:00:51;99430.00;;;14.74;65.74
7376;BME280;3728;42.266;24.944;2023-03-04T14:03:27;99422.75;;;14.95;64.18
7376;BME280;3728;42.266;24.944;2023-03-04T14:06:18;99423.25;;;15.13;63.62
7376;BME280;3728;42.266;24.944;2023-03-04T14:08:53;99416.38;;;14.60;65.95
7376;BME280;3728;42.266;24.944;2023-03-04T14:11:32;99405.03;;;14.14;69.19
7376;BME280;3728;42.266;24.944;2023-03-04T14:14:04;99414.59;;;14.52;67.30
7376;BME280;3728;42.266;24.944;2023-03-04T14:16:48;99411.75;;;14.57;64.45
7376;BME280;3728;42.266;24.944;2023-03-04T14:21:55;99412.50;;;13.59;69.11
7376;BME280;3728;42.266;24.944;2023-03-04T14:24:23;99411.50;;;13.51;69.96
7376;BME280;3728;42.266;24.944;2023-03-04T14:27:18;99401.06;;;13.05;72.47
7376;BME280;3728;42.266;24.944;2023-03-04T14:29:54;99405.03;;;13.20;72.15
7376;BME280;3728;42.266;24.944;2023-03-04T14:32:27;99396.16;;;13.53;71.42
7376;BME280;3728;42.266;24.944;2023-03-04T14:35:05;99403.81;;;13.17;72.45
7376;BME280;3728;42.266;24.944;2023-03-04T14:38:12;99392.69;;;13.41;71.63
7376;BME280;3728;42.266;24.944;2023-03-04T14:40:46;99390.75;;;13.29;72.35
7376;BME280;3728;42.266;24.944;2023-03-04T14:43:25;99387.66;;;13.07;73.96
7376;BME280;3728;42.266;24.944;2023-03-04T14:45:57;99389.34;;;13.11;74.02
7376;BME280;3728;42.266;24.944;2023-03-04T14:48:30;99387.00;;;13.10;73.64
7376;BME280;3728;42.266;24.944;2023-03-04T14:51:02;99382.53;;;12.72;73.96
7376;BME280;3728;42.266;24.944;2023-03-04T14:53:31;99383.88;;;12.49;75.99
7376;BME280;3728;42.266;24.944;2023-03-04T14:56:07;99374.00;;;12.46;76.89
7376;BME280;3728;42.266;24.944;2023-03-04T14:58:57;99366.44;;;12.45;76.65
7376;BME280;3728;42.266;24.944;2023-03-04T15:01:35;99367.47;;;12.14;77.44
7376;BME280;3728;42.266;24.944;2023-03-04T15:04:10;99365.31;;;12.54;77.77
7376;BME280;3728;42.266;24.944;2023-03-04T15:06:51;99355.03;;;12.70;75.52
7376;BME280;3728;42.266;24.944;2023-03-04T15:09:24;99351.97;;;12.39;78.38
7376;BME280;3728;42.266;24.944;2023-03-04T15:12:02;99355.88;;;12.24;79.36
7376;BME280;3728;42.266;24.944;2023-03-04T15:17:34;99351.97;;;12.68;76.77
7376;BME280;3728;42.266;24.944;2023-03-04T15:25:14;99348.94;;;12.57;78.70
7376;BME280;3728;42.266;24.944;2023-03-04T15:27:47;99344.66;;;12.53;79.52
7376;BME280;3728;42.266;24.944;2023-03-04T15:30:28;99339.41;;;12.44;80.68
7376;BME280;3728;42.266;24.944;2023-03-04T15:33:01;99338.72;;;12.56;80.81